createdAt,value
2023-02-07T00:00:59.805Z,20.58
2023-02-07T00:02:03.958Z,20.6
2023-02-07T00:03:08.257Z,20.59
2023-02-07T00:04:12.447Z,20.59
2023-02-07T00:05:16.585Z,20.59
2023-02-07T00:06:20.735Z,20.57
2023-02-07T00:07:24.902Z,20.57
2023-02-07T00:08:29.039Z,20.53
2023-02-07T00:09:33.195Z,20.55
2023-02-07T00:10:37.388Z,20.55
2023-02-07T00:11:41.528Z,20.54
2023-02-07T00:12:45.684Z,20.54
2023-02-07T00:13:49.836Z,20.53
2023-02-07T00:14:53.997Z,20.51
2023-02-07T00:15:58.112Z,20.53
2023-02-07T00:17:02.287Z,20.52
2023-02-07T00:18:06.509Z,20.49
2023-02-07T00:19:10.638Z,20.51
2023-02-07T00:20:14.906Z,20.52
2023-02-07T00:21:19.135Z,20.53
2023-02-07T00:22:23.337Z,20.51
2023-02-07T00:23:27.473Z,20.52
2023-02-07T00:24:31.648Z,20.5
2023-02-07T00:25:36.137Z,20.49
2023-02-07T00:26:41.223Z,20.48
2023-02-07T00:27:45.476Z,20.5
2023-02-07T00:28:49.975Z,20.48
2023-02-07T00:29:54.351Z,20.49
2023-02-07T00:30:58.515Z,20.47
2023-02-07T00:32:02.973Z,20.48
2023-02-07T00:33:07.134Z,20.47
2023-02-07T00:34:11.263Z,20.48
2023-02-07T00:35:15.469Z,20.49
2023-02-07T00:36:19.605Z,20.48
2023-02-07T00:37:23.737Z,20.49
2023-02-07T00:38:27.870Z,20.45
2023-02-07T00:39:32.016Z,20.44
2023-02-07T00:40:36.196Z,20.43
2023-02-07T00:41:40.360Z,20.4
2023-02-07T00:42:44.554Z,20.42
2023-02-07T00:43:48.743Z,20.39
2023-02-07T00:44:52.878Z,20.4
2023-02-07T00:45:57.033Z,20.35
2023-02-07T00:47:01.292Z,20.34
2023-02-07T00:48:05.420Z,20.35
2023-02-07T00:49:09.552Z,20.32
2023-02-07T00:50:13.694Z,20.31
2023-02-07T00:51:17.907Z,20.3
2023-02-07T00:52:22.311Z,20.32
2023-02-07T00:53:26.440Z,20.3
2023-02-07T00:54:30.631Z,20.31
2023-02-07T00:55:34.774Z,20.28
2023-02-07T00:56:39.976Z,20.29
2023-02-07T00:57:44.153Z,20.28
2023-02-07T00:58:50.085Z,20.27
2023-02-07T00:59:55.331Z,20.24
2023-02-07T01:00:59.641Z,20.24
2023-02-07T01:02:03.898Z,20.25
2023-02-07T01:03:08.025Z,20.24
2023-02-07T01:04:12.176Z,20.23
2023-02-07T01:05:16.359Z,20.21
2023-02-07T01:06:20.498Z,20.21
2023-02-07T01:07:24.706Z,20.21
2023-02-07T01:08:28.830Z,20.17
2023-02-07T01:09:32.962Z,20.18
2023-02-07T01:10:37.087Z,20.16
2023-02-07T01:11:41.212Z,20.17
2023-02-07T01:12:45.343Z,20.16
2023-02-07T01:13:49.492Z,20.14
2023-02-07T01:14:53.634Z,20.15
2023-02-07T01:15:57.876Z,20.12
2023-02-07T01:17:02.428Z,20.14
2023-02-07T01:18:06.591Z,20.13
2023-02-07T01:19:10.819Z,20.12
2023-02-07T01:20:16.113Z,20.11
2023-02-07T01:21:20.352Z,20.11
2023-02-07T01:22:24.520Z,20.11
2023-02-07T01:23:28.661Z,20.1
2023-02-07T01:24:32.811Z,20.1
2023-02-07T01:25:37.150Z,20.1
2023-02-07T01:26:42.240Z,20.07
2023-02-07T01:27:46.384Z,20.07
2023-02-07T01:28:50.642Z,20.07
2023-02-07T01:29:54.844Z,20.07
2023-02-07T01:30:59.053Z,20.06
2023-02-07T01:32:03.630Z,20.07
2023-02-07T01:33:07.755Z,20.06
2023-02-07T01:34:11.888Z,20.05
2023-02-07T01:35:16.025Z,20.04
2023-02-07T01:36:20.263Z,20.05
2023-02-07T01:37:24.406Z,20.03
2023-02-07T01:38:28.724Z,20
2023-02-07T01:39:32.871Z,20.02
2023-02-07T01:40:37.015Z,20.04
2023-02-07T01:41:41.197Z,20
2023-02-07T01:42:45.395Z,20.01
2023-02-07T01:43:49.520Z,20.02
2023-02-07T01:44:53.698Z,19.99
2023-02-07T01:45:58.009Z,19.99
2023-02-07T01:47:02.318Z,19.96
2023-02-07T01:48:06.452Z,19.98
2023-02-07T01:49:10.585Z,19.97
2023-02-07T01:50:14.724Z,19.98
2023-02-07T01:51:18.903Z,19.94
2023-02-07T01:52:23.054Z,19.94
2023-02-07T01:53:27.212Z,19.95
2023-02-07T01:54:31.420Z,19.94
2023-02-07T01:55:35.780Z,19.92
2023-02-07T01:56:41.209Z,19.91
2023-02-07T01:57:45.335Z,19.91
2023-02-07T01:58:49.495Z,19.9
2023-02-07T01:59:53.621Z,19.9
2023-02-07T02:00:57.744Z,19.9
2023-02-07T02:02:01.867Z,19.89
2023-02-07T02:03:06.002Z,19.85
2023-02-07T02:04:10.134Z,19.87
2023-02-07T02:05:15.500Z,19.87
2023-02-07T02:06:19.639Z,19.85
2023-02-07T02:07:23.772Z,19.85
2023-02-07T02:08:27.891Z,19.84
2023-02-07T02:09:32.022Z,19.85
2023-02-07T02:10:36.166Z,19.83
2023-02-07T02:11:40.298Z,19.83
2023-02-07T02:12:44.442Z,19.82
2023-02-07T02:13:48.565Z,19.81
2023-02-07T02:14:52.702Z,19.81
2023-02-07T02:15:56.869Z,19.82
2023-02-07T02:17:01.096Z,19.81
2023-02-07T02:18:05.232Z,19.78
2023-02-07T02:19:09.351Z,19.8
2023-02-07T02:20:13.646Z,19.79
2023-02-07T02:21:17.761Z,19.77
2023-02-07T02:22:21.893Z,19.77
2023-02-07T02:23:26.031Z,19.77
2023-02-07T02:24:30.140Z,19.75
2023-02-07T02:25:34.273Z,19.74
2023-02-07T02:26:38.998Z,19.75
2023-02-07T02:27:43.135Z,19.75
2023-02-07T02:28:47.309Z,19.74
2023-02-07T02:29:51.461Z,19.73
2023-02-07T02:30:55.681Z,19.73
2023-02-07T02:32:00.156Z,19.71
2023-02-07T02:33:04.386Z,19.72
2023-02-07T02:34:08.493Z,19.69
2023-02-07T02:35:12.626Z,19.7
2023-02-07T02:36:16.760Z,19.71
2023-02-07T02:37:20.902Z,19.71
2023-02-07T02:38:25.050Z,19.69
2023-02-07T02:39:29.204Z,19.69
2023-02-07T02:40:33.325Z,19.68
2023-02-07T02:41:37.450Z,19.67
2023-02-07T02:42:41.624Z,19.66
2023-02-07T02:43:45.779Z,19.67
2023-02-07T02:44:49.937Z,19.66
2023-02-07T02:45:54.080Z,19.64
2023-02-07T02:46:58.217Z,19.66
2023-02-07T02:48:02.398Z,19.64
2023-02-07T02:49:06.557Z,19.63
2023-02-07T02:50:10.685Z,19.63
2023-02-07T02:51:14.831Z,19.6
2023-02-07T02:52:18.963Z,19.62
2023-02-07T02:53:23.110Z,19.62
2023-02-07T02:54:27.409Z,19.6
2023-02-07T02:55:31.548Z,19.59
2023-02-07T02:56:35.674Z,19.62
2023-02-07T02:57:39.817Z,19.59
2023-02-07T02:58:43.944Z,19.59
2023-02-07T02:59:48.118Z,19.59
2023-02-07T03:00:52.238Z,19.58
2023-02-07T03:01:56.399Z,19.59
2023-02-07T03:03:00.815Z,19.58
2023-02-07T03:04:04.955Z,19.54
2023-02-07T03:05:09.156Z,19.55
2023-02-07T03:06:13.394Z,19.55
2023-02-07T03:07:17.521Z,19.54
2023-02-07T03:08:21.647Z,19.54
2023-02-07T03:09:25.773Z,19.55
2023-02-07T03:10:29.928Z,19.54
2023-02-07T03:11:34.070Z,19.52
2023-02-07T03:12:38.184Z,19.5
2023-02-07T03:13:42.337Z,19.5
2023-02-07T03:14:46.453Z,19.5
2023-02-07T03:15:50.634Z,19.49
2023-02-07T03:16:54.967Z,19.52
2023-02-07T03:17:59.091Z,19.49
2023-02-07T03:19:03.251Z,19.47
2023-02-07T03:20:07.403Z,19.46
2023-02-07T03:21:11.539Z,19.47
2023-02-07T03:22:15.673Z,19.49
2023-02-07T03:23:19.817Z,19.49
2023-02-07T03:24:23.983Z,19.47
2023-02-07T03:25:28.139Z,19.46
2023-02-07T03:26:32.268Z,19.46
2023-02-07T03:27:36.415Z,19.46
2023-02-07T03:28:40.541Z,19.47
2023-02-07T03:29:44.705Z,19.45
2023-02-07T03:30:48.841Z,19.44
2023-02-07T03:31:53.102Z,19.42
2023-02-07T03:32:57.213Z,19.43
2023-02-07T03:34:01.361Z,19.43
2023-02-07T03:35:05.537Z,19.4
2023-02-07T03:36:09.681Z,19.37
2023-02-07T03:37:13.795Z,19.38
2023-02-07T03:38:17.933Z,19.37
2023-02-07T03:39:22.086Z,19.38
2023-02-07T03:40:26.230Z,19.38
2023-02-07T03:41:30.395Z,19.35
2023-02-07T03:42:34.559Z,19.37
2023-02-07T03:43:38.697Z,19.35
2023-02-07T03:44:42.821Z,19.36
2023-02-07T03:45:46.955Z,19.35
2023-02-07T03:46:51.132Z,19.35
2023-02-07T03:47:55.412Z,19.32
2023-02-07T03:48:59.541Z,19.32
2023-02-07T03:50:03.697Z,19.34
2023-02-07T03:51:07.892Z,19.33
2023-02-07T03:52:12.012Z,19.35
2023-02-07T03:53:16.133Z,19.3
2023-02-07T03:54:20.283Z,19.31
2023-02-07T03:55:24.408Z,19.33
2023-02-07T03:56:28.561Z,19.32
2023-02-07T03:57:32.713Z,19.3
2023-02-07T03:58:36.847Z,19.3
2023-02-07T03:59:41.268Z,19.27
2023-02-07T04:00:45.492Z,19.29
2023-02-07T04:01:49.709Z,19.28
2023-02-07T04:02:53.963Z,19.28
2023-02-07T04:03:58.080Z,19.26
2023-02-07T04:05:02.214Z,19.28
2023-02-07T04:06:06.392Z,19.28
2023-02-07T04:07:10.549Z,19.27
2023-02-07T04:08:14.694Z,19.24
2023-02-07T04:09:18.832Z,19.25
2023-02-07T04:10:22.985Z,19.23
2023-02-07T04:11:27.587Z,19.24
2023-02-07T04:12:31.791Z,19.22
2023-02-07T04:13:35.957Z,19.2
2023-02-07T04:14:40.507Z,19.23
2023-02-07T04:15:44.672Z,19.2
2023-02-07T04:16:48.826Z,19.21
2023-02-07T04:17:52.985Z,19.2
2023-02-07T04:18:57.138Z,19.21
2023-02-07T04:20:01.266Z,19.2
2023-02-07T04:21:05.403Z,19.19
2023-02-07T04:22:09.549Z,19.19
2023-02-07T04:23:13.709Z,19.16
2023-02-07T04:24:17.884Z,19.17
2023-02-07T04:25:22.029Z,19.19
2023-02-07T04:26:26.179Z,19.16
2023-02-07T04:27:30.299Z,19.18
2023-02-07T04:28:34.462Z,19.15
2023-02-07T04:29:38.582Z,19.16
2023-02-07T04:30:42.842Z,19.13
2023-02-07T04:31:47.114Z,19.18
2023-02-07T04:32:51.513Z,19.19
2023-02-07T04:33:55.649Z,19.2
2023-02-07T04:34:59.811Z,19.05
2023-02-07T04:36:03.990Z,19.28
2023-02-07T04:37:08.289Z,19.33
2023-02-07T04:38:12.579Z,19.38
2023-02-07T04:39:16.733Z,19.44
2023-02-07T04:40:20.885Z,19.48
2023-02-07T04:41:25.041Z,19.56
2023-02-07T04:42:29.280Z,19.61
2023-02-07T04:43:33.433Z,19.67
2023-02-07T04:44:37.570Z,19.68
2023-02-07T04:45:41.752Z,19.75
2023-02-07T04:46:46.039Z,19.77
2023-02-07T04:47:50.178Z,19.77
2023-02-07T04:48:54.498Z,19.79
2023-02-07T04:49:59.901Z,19.79
2023-02-07T04:51:04.066Z,19.81
2023-02-07T04:52:08.210Z,19.86
2023-02-07T04:53:12.380Z,19.91
2023-02-07T04:54:16.514Z,19.93
2023-02-07T04:55:20.667Z,19.97
2023-02-07T04:56:24.820Z,19.98
2023-02-07T04:57:28.969Z,20
2023-02-07T04:58:33.136Z,20.05
2023-02-07T04:59:37.255Z,20.04
2023-02-07T05:00:41.392Z,20.1
2023-02-07T05:01:45.566Z,20.1
2023-02-07T05:02:49.715Z,20.1
2023-02-07T05:03:53.867Z,20.14
2023-02-07T05:04:58.002Z,20.14
2023-02-07T05:06:02.169Z,20.18
2023-02-07T05:07:06.425Z,20.18
2023-02-07T05:08:10.568Z,20.2
2023-02-07T05:09:14.737Z,20.21
2023-02-07T05:10:18.893Z,20.26
2023-02-07T05:11:23.049Z,20.28
2023-02-07T05:12:27.188Z,20.29
2023-02-07T05:13:31.338Z,20.31
2023-02-07T05:14:35.499Z,20.33
2023-02-07T05:15:39.908Z,20.35
2023-02-07T05:16:44.296Z,20.36
2023-02-07T05:17:48.546Z,20.4
2023-02-07T05:18:52.695Z,20.4
2023-02-07T05:19:56.848Z,20.41
2023-02-07T05:21:01.040Z,20.4
2023-02-07T05:22:05.212Z,20.46
2023-02-07T05:23:09.339Z,20.48
2023-02-07T05:24:13.494Z,20.45
2023-02-07T05:25:17.652Z,20.5
2023-02-07T05:26:21.812Z,20.48
2023-02-07T05:27:25.960Z,20.52
2023-02-07T05:28:30.122Z,20.54
2023-02-07T05:29:34.271Z,20.54
2023-02-07T05:30:38.523Z,20.52
2023-02-07T05:31:43.061Z,20.56
2023-02-07T05:32:47.766Z,20.61
2023-02-07T05:33:51.909Z,20.62
2023-02-07T05:34:56.128Z,20.63
2023-02-07T05:36:00.250Z,20.62
2023-02-07T05:37:04.366Z,20.62
2023-02-07T05:38:08.491Z,20.63
2023-02-07T05:39:12.631Z,20.61
2023-02-07T05:40:16.737Z,20.62
2023-02-07T05:41:20.867Z,20.58
2023-02-07T05:42:25.008Z,20.54
2023-02-07T05:43:29.163Z,20.55
2023-02-07T05:44:33.337Z,20.54
2023-02-07T05:45:37.881Z,20.52
2023-02-07T05:46:43.206Z,20.52
2023-02-07T05:47:47.333Z,20.51
2023-02-07T05:48:51.491Z,20.47
2023-02-07T05:49:55.675Z,20.47
2023-02-07T05:50:59.839Z,20.43
2023-02-07T05:52:04.001Z,20.44
2023-02-07T05:53:08.281Z,20.42
2023-02-07T05:54:14.531Z,20.41
2023-02-07T05:55:18.733Z,20.39
2023-02-07T05:56:22.891Z,20.37
2023-02-07T05:57:27.051Z,20.33
2023-02-07T05:58:31.190Z,20.34
2023-02-07T05:59:35.321Z,20.32
2023-02-07T06:00:39.484Z,20.31
2023-02-07T06:01:43.649Z,20.26
2023-02-07T06:02:47.865Z,20.28
2023-02-07T06:03:52.141Z,20.26
2023-02-07T06:04:56.468Z,20.23
2023-02-07T06:06:00.645Z,20.24
2023-02-07T06:07:04.827Z,20.2
2023-02-07T06:08:08.967Z,20.21
2023-02-07T06:09:13.183Z,20.2
2023-02-07T06:10:17.350Z,20.18
2023-02-07T06:11:21.495Z,20.16
2023-02-07T06:12:25.620Z,20.15
2023-02-07T06:13:29.763Z,20.15
2023-02-07T06:14:33.923Z,20.14
2023-02-07T06:15:38.373Z,20.1
2023-02-07T06:16:43.660Z,20.12
2023-02-07T06:17:47.821Z,20.11
2023-02-07T06:18:51.958Z,20.09
2023-02-07T06:19:56.241Z,20.09
2023-02-07T06:21:00.386Z,20.05
2023-02-07T06:22:04.532Z,20.06
2023-02-07T06:23:08.658Z,20.04
2023-02-07T06:24:12.810Z,20.05
2023-02-07T06:25:16.985Z,20.02
2023-02-07T06:26:24.165Z,20.02
2023-02-07T06:27:28.328Z,20.02
2023-02-07T06:28:32.463Z,20.03
2023-02-07T06:29:36.629Z,20.01
2023-02-07T06:30:40.776Z,20.02
2023-02-07T06:31:45.017Z,20.01
2023-02-07T06:32:49.320Z,20.01
2023-02-07T06:33:53.472Z,19.97
2023-02-07T06:34:57.626Z,19.98
2023-02-07T06:36:01.766Z,19.96
2023-02-07T06:37:05.965Z,19.98
2023-02-07T06:38:10.137Z,19.97
2023-02-07T06:39:14.279Z,19.96
2023-02-07T06:40:18.420Z,19.94
2023-02-07T06:41:22.569Z,19.95
2023-02-07T06:42:26.752Z,19.93
2023-02-07T06:43:30.923Z,19.94
2023-02-07T06:44:35.060Z,19.9
2023-02-07T06:45:39.456Z,19.91
2023-02-07T06:46:44.117Z,19.91
2023-02-07T06:47:48.322Z,19.88
2023-02-07T06:48:52.446Z,19.89
2023-02-07T06:49:56.601Z,19.88
2023-02-07T06:51:00.748Z,19.88
2023-02-07T06:52:05.159Z,19.87
2023-02-07T06:53:09.348Z,19.87
2023-02-07T06:54:13.470Z,19.86
2023-02-07T06:55:17.609Z,19.84
2023-02-07T06:56:21.751Z,19.83
2023-02-07T06:57:25.914Z,19.84
2023-02-07T06:58:30.098Z,19.83
2023-02-07T06:59:34.278Z,19.83
2023-02-07T07:00:38.431Z,19.82
2023-02-07T07:01:42.630Z,19.79
2023-02-07T07:02:47.070Z,19.8
2023-02-07T07:03:51.357Z,19.8
2023-02-07T07:04:55.517Z,19.8
2023-02-07T07:05:59.654Z,19.8
2023-02-07T07:07:03.861Z,19.79
2023-02-07T07:08:08.039Z,19.78
2023-02-07T07:09:12.198Z,19.77
2023-02-07T07:10:16.349Z,19.76
2023-02-07T07:11:20.717Z,19.75
2023-02-07T07:12:24.881Z,19.74
2023-02-07T07:13:29.009Z,19.75
2023-02-07T07:14:33.172Z,19.73
2023-02-07T07:15:37.559Z,19.72
2023-02-07T07:16:42.668Z,19.73
2023-02-07T07:17:46.843Z,19.73
2023-02-07T07:18:50.992Z,19.7
2023-02-07T07:19:55.131Z,19.68
2023-02-07T07:20:59.259Z,19.68
2023-02-07T07:22:03.408Z,19.69
2023-02-07T07:23:07.530Z,19.69
2023-02-07T07:24:11.662Z,19.68
2023-02-07T07:25:15.802Z,19.67
2023-02-07T07:26:19.942Z,19.66
2023-02-07T07:27:24.083Z,19.66
2023-02-07T07:28:28.347Z,19.66
2023-02-07T07:29:32.604Z,19.62
2023-02-07T07:30:36.805Z,19.62
2023-02-07T07:31:41.082Z,19.63
2023-02-07T07:32:45.419Z,19.61
2023-02-07T07:33:49.558Z,19.62
2023-02-07T07:34:53.705Z,19.62
2023-02-07T07:35:57.888Z,19.62
2023-02-07T07:37:02.033Z,19.6
2023-02-07T07:38:06.224Z,19.58
2023-02-07T07:39:10.428Z,19.56
2023-02-07T07:40:14.582Z,19.55
2023-02-07T07:41:18.804Z,19.55
2023-02-07T07:42:22.980Z,19.51
2023-02-07T07:43:27.203Z,19.54
2023-02-07T07:44:31.370Z,19.54
2023-02-07T07:45:35.551Z,19.53
2023-02-07T07:46:39.717Z,19.52
2023-02-07T07:47:43.994Z,19.49
2023-02-07T07:48:48.147Z,19.51
2023-02-07T07:49:52.313Z,19.49
2023-02-07T07:50:56.451Z,19.49
2023-02-07T07:52:00.597Z,19.49
2023-02-07T07:53:04.734Z,19.47
2023-02-07T07:54:09.986Z,19.48
2023-02-07T07:55:14.146Z,19.46
2023-02-07T07:56:18.294Z,19.47
2023-02-07T07:57:22.425Z,19.45
2023-02-07T07:58:26.585Z,19.44
2023-02-07T07:59:30.727Z,19.41
2023-02-07T08:00:34.900Z,19.41
2023-02-07T08:01:39.262Z,19.4
2023-02-07T08:02:43.443Z,19.41
2023-02-07T08:03:47.651Z,19.42
2023-02-07T08:04:51.898Z,19.39
2023-02-07T08:05:56.081Z,19.37
2023-02-07T08:07:00.249Z,19.37
2023-02-07T08:08:04.424Z,19.36
2023-02-07T08:09:08.579Z,19.38
2023-02-07T08:10:12.771Z,19.37
2023-02-07T08:11:16.930Z,19.35
2023-02-07T08:12:21.087Z,19.34
2023-02-07T08:13:27.495Z,19.35
2023-02-07T08:14:36.442Z,19.35
2023-02-07T08:15:40.630Z,19.37
2023-02-07T08:16:44.856Z,19.36
2023-02-07T08:17:49.018Z,19.33
2023-02-07T08:18:53.297Z,19.35
2023-02-07T08:19:57.440Z,19.34
2023-02-07T08:21:01.615Z,19.31
2023-02-07T08:22:05.767Z,19.33
2023-02-07T08:23:09.899Z,19.32
2023-02-07T08:24:14.069Z,19.29
2023-02-07T08:25:18.292Z,19.29
2023-02-07T08:26:22.428Z,19.3
2023-02-07T08:27:26.590Z,19.28
2023-02-07T08:28:30.748Z,19.26
2023-02-07T08:29:34.939Z,19.28
2023-02-07T08:30:39.397Z,19.27
2023-02-07T08:31:44.303Z,19.23
2023-02-07T08:32:48.554Z,19.25
2023-02-07T08:33:52.709Z,19.24
2023-02-07T08:34:56.901Z,19.27
2023-02-07T08:36:01.017Z,19.26
2023-02-07T08:37:05.182Z,19.23
2023-02-07T08:38:09.351Z,19.24
2023-02-07T08:39:13.507Z,19.24
2023-02-07T08:40:17.651Z,19.23
2023-02-07T08:41:21.791Z,19.24
2023-02-07T08:42:25.927Z,19.23
2023-02-07T08:43:30.098Z,19.23
2023-02-07T08:44:34.337Z,19.2
2023-02-07T08:45:38.615Z,19.23
2023-02-07T08:46:43.147Z,19.2
2023-02-07T08:47:47.376Z,19.23
2023-02-07T08:48:51.566Z,19.04
2023-02-07T08:49:55.694Z,19.09
2023-02-07T08:50:59.866Z,19.12
2023-02-07T08:52:04.001Z,19.2
2023-02-07T08:53:08.150Z,19.2
2023-02-07T08:54:12.315Z,19.17
2023-02-07T08:55:16.445Z,19.2
2023-02-07T08:56:20.587Z,19.17
2023-02-07T08:57:24.770Z,19.17
2023-02-07T08:58:29.030Z,19.14
2023-02-07T08:59:33.277Z,19.15
2023-02-07T09:00:38.124Z,19.15
2023-02-07T09:01:43.430Z,19.15
2023-02-07T09:02:47.566Z,19.14
2023-02-07T09:03:51.718Z,19.13
2023-02-07T09:04:55.900Z,19.14
2023-02-07T09:06:00.084Z,19.13
2023-02-07T09:07:04.257Z,19.14
2023-02-07T09:08:08.400Z,19.14
2023-02-07T09:09:12.525Z,19.13
2023-02-07T09:10:16.685Z,19.12
2023-02-07T09:11:20.880Z,19.14
2023-02-07T09:12:25.135Z,19.12
2023-02-07T09:13:29.279Z,19.12
2023-02-07T09:14:33.406Z,19.08
2023-02-07T09:15:37.577Z,19.08
2023-02-07T09:16:41.793Z,19.09
2023-02-07T09:17:46.068Z,19.09
2023-02-07T09:18:50.408Z,19.08
2023-02-07T09:19:55.246Z,19.07
2023-02-07T09:20:59.458Z,19.07
2023-02-07T09:22:03.607Z,19.08
2023-02-07T09:23:07.761Z,18.83
2023-02-07T09:24:11.897Z,19.04
2023-02-07T09:25:16.034Z,19.06
2023-02-07T09:26:20.162Z,19.05
2023-02-07T09:27:24.303Z,19.03
2023-02-07T09:28:28.448Z,19.04
2023-02-07T09:29:32.608Z,19.02
2023-02-07T09:30:36.854Z,19.05
2023-02-07T09:31:41.368Z,19.04
2023-02-07T09:32:45.987Z,19.04
2023-02-07T09:33:50.125Z,19.04
2023-02-07T09:34:54.280Z,19.02
2023-02-07T09:35:58.427Z,19.03
2023-02-07T09:37:02.595Z,19.02
2023-02-07T09:38:06.736Z,19.03
2023-02-07T09:39:10.890Z,19.03
2023-02-07T09:40:15.033Z,19.05
2023-02-07T09:41:19.163Z,19.06
2023-02-07T09:42:23.291Z,19.06
2023-02-07T09:43:28.411Z,19.1
2023-02-07T09:44:41.291Z,19.13
2023-02-07T09:45:46.118Z,19.15
2023-02-07T09:46:50.564Z,19.18
2023-02-07T09:47:54.760Z,19.19
2023-02-07T09:48:58.910Z,19.23
2023-02-07T09:50:03.077Z,19.27
2023-02-07T09:51:07.250Z,19.32
2023-02-07T09:52:11.391Z,19.33
2023-02-07T09:53:16.546Z,19.38
2023-02-07T09:54:20.805Z,19.37
2023-02-07T09:55:25.002Z,19.42
2023-02-07T09:56:29.168Z,19.42
2023-02-07T09:57:33.298Z,19.41
2023-02-07T09:58:39.279Z,19.44
2023-02-07T09:59:44.317Z,19.45
2023-02-07T10:00:48.456Z,19.48
2023-02-07T10:01:52.585Z,19.49
2023-02-07T10:02:56.736Z,19.5
2023-02-07T10:04:00.927Z,19.49
2023-02-07T10:05:05.073Z,19.51
2023-02-07T10:06:18.166Z,19.53
2023-02-07T10:07:25.460Z,19.54
2023-02-07T10:08:36.609Z,19.54
2023-02-07T10:09:44.871Z,19.58
2023-02-07T10:10:49.016Z,19.6
2023-02-07T10:11:53.145Z,19.61
2023-02-07T10:12:57.483Z,19.59
2023-02-07T10:14:01.706Z,19.62
2023-02-07T10:15:06.105Z,19.65
2023-02-07T10:16:10.528Z,19.66
2023-02-07T10:17:22.303Z,19.65
2023-02-07T10:18:35.113Z,19.66
2023-02-07T10:19:39.361Z,19.69
2023-02-07T10:20:43.578Z,19.71
2023-02-07T10:21:47.787Z,19.63
2023-02-07T10:22:51.957Z,19.74
2023-02-07T10:23:56.168Z,19.77
2023-02-07T10:25:00.355Z,19.78
2023-02-07T10:26:04.619Z,19.79
2023-02-07T10:27:08.807Z,19.82
2023-02-07T10:28:13.022Z,19.83
2023-02-07T10:29:17.401Z,19.84
2023-02-07T10:30:21.701Z,19.86
2023-02-07T10:31:26.190Z,19.84
2023-02-07T10:32:30.936Z,19.86
2023-02-07T10:33:35.058Z,19.89
2023-02-07T10:34:39.259Z,19.9
2023-02-07T10:35:43.390Z,19.9
2023-02-07T10:36:47.533Z,19.89
2023-02-07T10:37:51.735Z,19.91
2023-02-07T10:39:03.398Z,19.94
2023-02-07T10:40:13.128Z,19.96
2023-02-07T10:41:17.384Z,20
2023-02-07T10:42:21.527Z,20.01
2023-02-07T10:43:25.667Z,20.03
2023-02-07T10:44:29.817Z,20.05
2023-02-07T10:45:33.985Z,20.05
2023-02-07T10:46:38.220Z,20.07
2023-02-07T10:47:42.569Z,20.08
2023-02-07T10:48:48.214Z,20.08
2023-02-07T10:49:52.776Z,20.1
2023-02-07T10:50:56.880Z,20.14
2023-02-07T10:52:01.025Z,20.14
2023-02-07T10:53:05.244Z,20.14
2023-02-07T10:54:09.409Z,20.15
2023-02-07T10:55:13.609Z,20.18
2023-02-07T10:56:17.774Z,20.19
2023-02-07T10:57:21.998Z,20.19
2023-02-07T10:58:26.194Z,20.19
2023-02-07T10:59:30.328Z,20.25
2023-02-07T11:00:34.498Z,20.24
2023-02-07T11:01:39.465Z,20.26
2023-02-07T11:02:43.939Z,20.26
2023-02-07T11:03:48.285Z,20.28
2023-02-07T11:04:52.480Z,20.27
2023-02-07T11:05:56.630Z,20.28
2023-02-07T11:07:00.860Z,20.27
2023-02-07T11:08:05.029Z,20.26
2023-02-07T11:09:11.630Z,20.27
2023-02-07T11:10:15.768Z,20.29
2023-02-07T11:11:20.053Z,20.28
2023-02-07T11:12:24.326Z,20.26
2023-02-07T11:13:29.167Z,20.26
2023-02-07T11:14:34.888Z,20.22
2023-02-07T11:15:50.999Z,20.23
2023-02-07T11:16:55.265Z,20.27
2023-02-07T11:17:59.482Z,20.28
2023-02-07T11:19:03.678Z,20.28
2023-02-07T11:20:07.842Z,20.28
2023-02-07T11:21:11.996Z,20.31
2023-02-07T11:22:16.152Z,20.28
2023-02-07T11:23:20.474Z,20.32
2023-02-07T11:24:24.657Z,20.35
2023-02-07T11:25:28.821Z,20.38
2023-02-07T11:26:32.949Z,20.37
2023-02-07T11:27:37.236Z,20.34
2023-02-07T11:28:41.510Z,20.38
2023-02-07T11:29:46.038Z,20.38
2023-02-07T11:30:50.457Z,20.4
2023-02-07T11:31:54.957Z,20.42
2023-02-07T11:32:59.172Z,20.44
2023-02-07T11:34:03.382Z,20.45
2023-02-07T11:35:07.538Z,20.45
2023-02-07T11:36:12.196Z,20.44
2023-02-07T11:37:16.399Z,20.49
2023-02-07T11:38:20.571Z,20.48
2023-02-07T11:39:24.742Z,20.5
2023-02-07T11:40:28.918Z,20.51
2023-02-07T11:41:33.047Z,20.53
2023-02-07T11:42:37.186Z,20.54
2023-02-07T11:43:41.461Z,20.58
2023-02-07T11:44:45.818Z,20.58
2023-02-07T11:45:49.990Z,20.6
2023-02-07T11:46:54.114Z,20.62
2023-02-07T11:47:58.276Z,20.6
2023-02-07T11:49:02.443Z,20.61
2023-02-07T11:50:06.654Z,20.59
2023-02-07T11:51:10.826Z,20.63
2023-02-07T11:52:15.069Z,20.66
2023-02-07T11:53:19.550Z,20.67
2023-02-07T11:54:23.729Z,20.65
2023-02-07T11:55:27.882Z,20.7
2023-02-07T11:56:32.100Z,20.7
2023-02-07T11:57:36.330Z,20.75
2023-02-07T11:58:40.622Z,20.75
2023-02-07T11:59:44.802Z,20.76
2023-02-07T12:00:48.963Z,20.77
2023-02-07T12:01:53.188Z,20.73
2023-02-07T12:02:57.510Z,20.75
2023-02-07T12:04:01.689Z,20.78
2023-02-07T12:05:05.846Z,20.78
2023-02-07T12:06:10.172Z,20.79
2023-02-07T12:07:14.300Z,20.8
2023-02-07T12:08:18.461Z,20.82
2023-02-07T12:09:22.612Z,20.85
2023-02-07T12:10:26.793Z,20.87
2023-02-07T12:11:30.933Z,20.87
2023-02-07T12:12:35.070Z,20.87
2023-02-07T12:13:39.249Z,20.87
2023-02-07T12:14:43.395Z,20.87
2023-02-07T12:15:47.537Z,20.91
2023-02-07T12:16:51.685Z,20.91
2023-02-07T12:17:55.829Z,20.93
2023-02-07T12:19:00.011Z,20.92
2023-02-07T12:20:04.149Z,20.97
2023-02-07T12:21:08.324Z,20.95
2023-02-07T12:22:12.687Z,21
2023-02-07T12:23:40.630Z,21.01
2023-02-07T12:24:46.810Z,21.02
2023-02-07T12:25:50.987Z,21.04
2023-02-07T12:26:55.136Z,21.07
2023-02-07T12:27:59.319Z,21.08
2023-02-07T12:29:12.619Z,21.08
2023-02-07T12:30:17.416Z,21.11
2023-02-07T12:31:21.607Z,21.11
2023-02-07T12:32:26.222Z,21.1
2023-02-07T12:33:31.038Z,20.97
2023-02-07T12:34:35.267Z,21.11
2023-02-07T12:35:45.714Z,21.1
2023-02-07T12:37:01.526Z,21.1
2023-02-07T12:38:08.182Z,21.06
2023-02-07T12:39:12.479Z,21.07
2023-02-07T12:40:16.640Z,21.1
2023-02-07T12:41:20.817Z,21.09
2023-02-07T12:42:24.957Z,21.08
2023-02-07T12:43:29.111Z,21.09
2023-02-07T12:44:33.446Z,21.1
2023-02-07T12:45:37.962Z,21.09
2023-02-07T12:46:43.212Z,21.08
2023-02-07T12:47:47.362Z,21.11
2023-02-07T12:48:51.518Z,21.12
2023-02-07T12:49:55.713Z,21.11
2023-02-07T12:50:59.847Z,21.12
2023-02-07T12:52:05.818Z,21.16
2023-02-07T12:53:10.558Z,21.15
2023-02-07T12:54:14.687Z,20.96
2023-02-07T12:55:18.852Z,21.2
2023-02-07T12:56:22.970Z,21.19
2023-02-07T12:57:27.102Z,21.2
2023-02-07T12:58:31.249Z,21.2
2023-02-07T12:59:35.388Z,21.25
2023-02-07T13:00:39.565Z,21.37
2023-02-07T13:01:43.824Z,21.42
2023-02-07T13:02:47.967Z,21.49
2023-02-07T13:03:52.107Z,21.51
2023-02-07T13:04:56.295Z,21.59
2023-02-07T13:06:00.528Z,21.58
2023-02-07T13:07:04.728Z,21.65
2023-02-07T13:08:08.889Z,21.67
2023-02-07T13:09:13.022Z,21.67
2023-02-07T13:10:19.784Z,21.65
2023-02-07T13:11:24.048Z,21.65
2023-02-07T13:12:28.243Z,21.65
2023-02-07T13:13:32.442Z,21.61
2023-02-07T13:14:36.583Z,21.57
2023-02-07T13:15:40.967Z,21.53
2023-02-07T13:16:45.424Z,21.47
2023-02-07T13:17:50.164Z,21.48
2023-02-07T13:18:54.316Z,21.46
2023-02-07T13:19:58.513Z,21.45
2023-02-07T13:21:02.796Z,21.48
2023-02-07T13:22:06.989Z,21.5
2023-02-07T13:23:11.330Z,21.52
2023-02-07T13:24:15.456Z,21.5
2023-02-07T13:25:19.589Z,21.47
2023-02-07T13:26:23.813Z,21.49
2023-02-07T13:27:27.955Z,21.5
2023-02-07T13:28:32.234Z,21.49
2023-02-07T13:29:36.372Z,21.53
2023-02-07T13:30:40.550Z,21.46
2023-02-07T13:31:45.214Z,21.47
2023-02-07T13:32:49.403Z,21.47
2023-02-07T13:33:53.531Z,21.45
2023-02-07T13:34:57.905Z,21.44
2023-02-07T13:36:02.069Z,21.43
2023-02-07T13:37:16.287Z,21.43
2023-02-07T13:38:21.019Z,21.42
2023-02-07T13:39:25.136Z,21.43
2023-02-07T13:40:29.484Z,21.45
2023-02-07T13:41:33.659Z,21.43
2023-02-07T13:42:37.912Z,21.4
2023-02-07T13:43:42.264Z,21.38
2023-02-07T13:44:46.401Z,21.39
2023-02-07T13:45:51.025Z,21.37
2023-02-07T13:46:55.278Z,21.35
2023-02-07T13:47:59.466Z,21.31
2023-02-07T13:49:03.796Z,21.31
2023-02-07T13:50:08.034Z,21.26
2023-02-07T13:51:12.175Z,21.28
2023-02-07T13:52:16.366Z,21.26
2023-02-07T13:53:20.572Z,21.24